createdAt,value
2022-12-27T00:00:00.152Z,1002.11
2022-12-27T00:05:00.132Z,1002.17
2022-12-27T00:10:00.187Z,1002.16
2022-12-27T00:15:00.138Z,1002.23
2022-12-27T00:20:02.940Z,1002.26
2022-12-27T00:25:00.126Z,1002.35
2022-12-27T00:30:00.138Z,1002.46
2022-12-27T00:35:00.171Z,1002.6
2022-12-27T00:40:00.142Z,1002.69
2022-12-27T00:45:00.136Z,1002.7
2022-12-27T00:50:00.122Z,1002.67
2022-12-27T00:55:00.154Z,1002.75
2022-12-27T01:00:03.456Z,1002.74
2022-12-27T01:05:00.123Z,1002.78
2022-12-27T01:10:00.118Z,1002.91
2022-12-27T01:15:00.121Z,1002.98
2022-12-27T01:20:00.125Z,1003.04
2022-12-27T01:25:00.161Z,1003.05
2022-12-27T01:30:00.109Z,1003.26
2022-12-27T01:35:00.126Z,1003.34
2022-12-27T01:40:00.144Z,1003.25
2022-12-27T01:45:00.130Z,1003.32
2022-12-27T01:50:00.159Z,1003.35
2022-12-27T01:55:00.141Z,1003.43
2022-12-27T02:00:00.163Z,1003.51
2022-12-27T02:05:00.116Z,1003.56
2022-12-27T02:10:00.116Z,1003.67
2022-12-27T02:15:00.162Z,1003.65
2022-12-27T02:20:00.134Z,1003.78
2022-12-27T02:25:00.129Z,1003.79
2022-12-27T02:30:00.121Z,1003.81
2022-12-27T02:35:00.136Z,1003.98
2022-12-27T02:40:00.150Z,1003.99
2022-12-27T02:45:00.132Z,1004.08
2022-12-27T02:50:00.124Z,1004
2022-12-27T02:55:00.250Z,1004.1
2022-12-27T03:00:00.224Z,1004.11
2022-12-27T03:05:00.129Z,1004.17
2022-12-27T03:10:00.110Z,1004.3
2022-12-27T03:15:00.139Z,1004.37
2022-12-27T03:20:00.219Z,1004.5
2022-12-27T03:25:00.108Z,1004.58
2022-12-27T03:30:00.138Z,1004.61
2022-12-27T03:35:00.149Z,1004.47
2022-12-27T03:40:00.118Z,1004.58
2022-12-27T03:45:00.127Z,1004.64
2022-12-27T03:50:00.137Z,1004.77
2022-12-27T03:55:00.165Z,1004.75
2022-12-27T04:00:00.170Z,1004.71
2022-12-27T04:05:00.115Z,1004.78
2022-12-27T04:10:00.129Z,1004.76
2022-12-27T04:15:00.135Z,1004.89
2022-12-27T04:20:00.151Z,1004.89
2022-12-27T04:25:00.136Z,1004.9
2022-12-27T04:30:00.136Z,1004.32
2022-12-27T04:35:00.135Z,1004.41
2022-12-27T04:40:00.140Z,1004.34
2022-12-27T04:45:00.128Z,1004.31
2022-12-27T04:50:00.139Z,1004.43
2022-12-27T04:55:00.119Z,1004.37
2022-12-27T05:00:00.187Z,1004.49
2022-12-27T05:05:00.118Z,1004.4
2022-12-27T05:10:00.119Z,1004.42
2022-12-27T05:15:00.171Z,1004.52
2022-12-27T05:20:00.154Z,1004.54
2022-12-27T05:25:00.150Z,1004.51
2022-12-27T05:30:00.138Z,1004.5
2022-12-27T05:35:00.134Z,1004.55
2022-12-27T05:40:00.127Z,1004.61
2022-12-27T05:45:00.108Z,1004.66
2022-12-27T05:50:00.121Z,1004.64
2022-12-27T05:55:00.179Z,1004.71
2022-12-27T06:00:00.180Z,1004.66
2022-12-27T06:05:00.100Z,1004.76
2022-12-27T06:10:00.141Z,1004.92
2022-12-27T06:15:00.142Z,1004.89
2022-12-27T06:20:00.146Z,1004.9
2022-12-27T06:25:00.145Z,1004.9
2022-12-27T06:30:00.126Z,1004.88
2022-12-27T06:35:00.165Z,1005.07
2022-12-27T06:40:00.140Z,1005.08
2022-12-27T06:45:00.128Z,1005.05
2022-12-27T06:50:00.130Z,1005.03
2022-12-27T06:55:00.151Z,1005.09
2022-12-27T07:00:00.151Z,1005.22
2022-12-27T07:05:00.143Z,1005.29
2022-12-27T07:10:00.151Z,1005.37
2022-12-27T07:15:00.152Z,1005.35
2022-12-27T07:20:00.107Z,1005.5
2022-12-27T07:25:00.126Z,1005.56
2022-12-27T07:30:00.174Z,1005.66
2022-12-27T07:35:00.181Z,1005.65
2022-12-27T07:40:00.143Z,1005.81
2022-12-27T07:45:00.124Z,1005.94
2022-12-27T07:50:00.140Z,1005.97
2022-12-27T07:55:00.146Z,1005.99
2022-12-27T08:00:00.156Z,1005.9
2022-12-27T08:05:00.139Z,1005.83
2022-12-27T08:10:00.122Z,1005.89
2022-12-27T08:15:00.121Z,1005.76
2022-12-27T08:20:00.104Z,1005.71
2022-12-27T08:25:00.148Z,1005.72
2022-12-27T08:30:00.172Z,1005.75
2022-12-27T08:35:18.188Z,1005.74
2022-12-27T08:40:02.775Z,1005.7
2022-12-27T08:45:00.110Z,1005.61
2022-12-27T08:50:00.154Z,1005.67
2022-12-27T08:55:00.148Z,1005.78
2022-12-27T09:00:00.229Z,1005.76
2022-12-27T09:05:00.130Z,1005.8
2022-12-27T09:10:00.120Z,1005.98
2022-12-27T09:15:00.187Z,1006.15
2022-12-27T09:20:00.160Z,1006.07
2022-12-27T09:25:00.181Z,1006.18
2022-12-27T09:30:00.159Z,1006.22
2022-12-27T09:35:00.139Z,1006.28
2022-12-27T09:40:00.142Z,1006.29
2022-12-27T09:45:00.109Z,1006.31
2022-12-27T09:50:00.149Z,1006.34
2022-12-27T09:55:04.617Z,1006.34
2022-12-27T10:00:00.146Z,1006.29
2022-12-27T10:10:00.236Z,1006.33
2022-12-27T10:15:00.192Z,1006.32
2022-12-27T10:20:00.097Z,1006.32
2022-12-27T10:25:00.182Z,1006.46
2022-12-27T10:30:00.237Z,1006.37
2022-12-27T10:35:00.279Z,1006.48
2022-12-27T10:40:00.134Z,1006.58
2022-12-27T10:45:00.124Z,1006.57
2022-12-27T10:50:00.144Z,1006.58
2022-12-27T10:55:00.143Z,1006.55
2022-12-27T11:00:00.310Z,1006.69
2022-12-27T11:05:00.205Z,1006.66
2022-12-27T11:10:00.151Z,1006.66
2022-12-27T11:15:00.283Z,1006.66
2022-12-27T11:20:00.132Z,1006.65
2022-12-27T11:25:00.259Z,1006.66
2022-12-27T11:30:00.170Z,1006.59
2022-12-27T11:35:00.135Z,1006.64
2022-12-27T11:40:00.146Z,1006.63
2022-12-27T11:45:00.127Z,1006.78
2022-12-27T11:50:00.150Z,1006.76
2022-12-27T11:55:00.127Z,1006.76
2022-12-27T12:00:00.174Z,1006.81
2022-12-27T12:05:00.190Z,1006.79
2022-12-27T12:10:00.269Z,1006.81
2022-12-27T12:15:00.170Z,1006.98
2022-12-27T12:20:00.160Z,1006.9
2022-12-27T12:25:00.204Z,1006.69
2022-12-27T12:30:00.175Z,1006.64
2022-12-27T12:35:00.165Z,1006.63
2022-12-27T12:40:00.131Z,1006.69
2022-12-27T12:45:00.181Z,1006.73
2022-12-27T12:50:00.142Z,1006.83
2022-12-27T12:55:00.188Z,1006.89
2022-12-27T13:00:00.163Z,1006.91
2022-12-27T13:05:00.144Z,1006.91
2022-12-27T13:10:00.174Z,1006.84
2022-12-27T13:15:00.123Z,1006.93
2022-12-27T13:20:00.306Z,1006.88
2022-12-27T13:25:00.159Z,1006.85
2022-12-27T13:30:04.658Z,1006.78
2022-12-27T13:35:00.164Z,1006.77
2022-12-27T13:40:00.163Z,1006.81
2022-12-27T13:45:00.184Z,1006.96
2022-12-27T13:50:00.224Z,1006.9
2022-12-27T13:55:00.164Z,1006.88
2022-12-27T14:00:00.162Z,1006.83
2022-12-27T14:05:00.146Z,1006.9
2022-12-27T14:10:00.137Z,1006.86
2022-12-27T14:15:00.186Z,1006.91
2022-12-27T14:20:00.212Z,1007
2022-12-27T14:25:00.167Z,1006.9
2022-12-27T14:30:00.161Z,1006.96
2022-12-27T14:35:00.271Z,1006.9
2022-12-27T14:40:00.183Z,1006.99
2022-12-27T14:45:00.122Z,1006.95
2022-12-27T14:50:00.201Z,1006.93
2022-12-27T14:55:00.139Z,1006.89
2022-12-27T15:00:00.153Z,1006.93
2022-12-27T15:05:00.138Z,1006.99
2022-12-27T15:10:00.159Z,1007.04
2022-12-27T15:15:00.248Z,1007.12
2022-12-27T15:20:00.135Z,1007.21
2022-12-27T15:25:00.125Z,1007.05
2022-12-27T15:30:00.119Z,1007
2022-12-27T15:35:00.178Z,1006.85
2022-12-27T15:40:00.128Z,1006.89
2022-12-27T15:45:00.126Z,1006.97
2022-12-27T15:50:00.135Z,1006.84
2022-12-27T15:55:00.154Z,1006.99
2022-12-27T16:00:00.316Z,1006.96
2022-12-27T16:05:00.119Z,1006.96
2022-12-27T16:10:00.193Z,1007.06
2022-12-27T16:15:00.133Z,1006.99
2022-12-27T16:20:00.148Z,1006.93
2022-12-27T16:25:00.151Z,1006.94
2022-12-27T16:30:00.137Z,1006.89
2022-12-27T16:35:00.152Z,1006.83
2022-12-27T16:40:00.103Z,1006.82
2022-12-27T16:45:00.138Z,1006.88
2022-12-27T16:50:00.211Z,1006.89
2022-12-27T16:55:00.158Z,1006.85
2022-12-27T17:00:00.196Z,1006.96
2022-12-27T17:05:00.128Z,1006.91
2022-12-27T17:10:00.151Z,1007.01
2022-12-27T17:15:00.213Z,1007
2022-12-27T17:20:00.166Z,1007.01
2022-12-27T17:25:00.150Z,1006.81
2022-12-27T17:30:00.128Z,1006.91
2022-12-27T17:35:00.160Z,1006.94
2022-12-27T17:40:00.193Z,1006.97
2022-12-27T17:45:00.116Z,1006.99
2022-12-27T17:50:00.104Z,1007.02
2022-12-27T17:55:00.151Z,1006.98
2022-12-27T18:00:00.179Z,1006.92
2022-12-27T18:05:00.141Z,1006.88
2022-12-27T18:10:00.153Z,1006.99
2022-12-27T18:15:00.136Z,1006.96
2022-12-27T18:20:00.124Z,1006.99
2022-12-27T18:25:00.147Z,1007.02
2022-12-27T18:30:00.142Z,1007.07
2022-12-27T18:35:00.145Z,1007.06
2022-12-27T18:40:00.131Z,1006.96
2022-12-27T18:45:00.141Z,1006.94
2022-12-27T18:50:00.128Z,1006.88
2022-12-27T18:55:00.145Z,1006.9
2022-12-27T19:00:00.131Z,1006.78
2022-12-27T19:05:00.134Z,1006.81
2022-12-27T19:10:00.131Z,1006.79
2022-12-27T19:15:00.149Z,1006.59
2022-12-27T19:20:00.098Z,1006.57
2022-12-27T19:25:00.151Z,1006.56
2022-12-27T19:30:00.148Z,1006.4
2022-12-27T19:35:00.140Z,1006.49
2022-12-27T19:40:00.164Z,1006.49
2022-12-27T19:45:00.158Z,1006.43
2022-12-27T19:50:00.126Z,1006.41
2022-12-27T19:55:01.014Z,1006.33
2022-12-27T20:00:00.205Z,1006.39
2022-12-27T20:05:00.094Z,1006.48
2022-12-27T20:10:00.123Z,1006.4
2022-12-27T20:15:00.165Z,1006.41
2022-12-27T20:20:00.131Z,1006.42
2022-12-27T20:25:00.138Z,1006.34
2022-12-27T20:30:00.207Z,1006.29
2022-12-27T20:35:00.162Z,1006.28
2022-12-27T20:40:00.162Z,1006.27
2022-12-27T20:45:00.147Z,1006.19
2022-12-27T20:50:00.143Z,1006.21
2022-12-27T20:55:00.262Z,1006.14
2022-12-27T21:00:00.144Z,1006.05
2022-12-27T21:05:00.132Z,1006.07
2022-12-27T21:10:00.097Z,1006.12
2022-12-27T21:15:00.164Z,1006.14
2022-12-27T21:20:00.129Z,1006.2
2022-12-27T21:25:00.148Z,1006.41
2022-12-27T21:30:00.152Z,1006.7
2022-12-27T21:35:00.153Z,1006.7
2022-12-27T21:40:00.156Z,1006.72
2022-12-27T21:45:00.157Z,1006.69
2022-12-27T21:50:00.126Z,1006.6
2022-12-27T21:55:00.134Z,1006.51
2022-12-27T22:00:00.149Z,1006.66
2022-12-27T22:05:00.093Z,1006.58
2022-12-27T22:10:00.113Z,1006.45
2022-12-27T22:15:00.163Z,1006.5
2022-12-27T22:20:00.125Z,1006.59
2022-12-27T22:25:00.117Z,1006.53
2022-12-27T22:30:00.135Z,1006.43
2022-12-27T22:35:00.148Z,1006.49
2022-12-27T22:40:00.148Z,1006.37
2022-12-27T22:45:00.124Z,1006.44
2022-12-27T22:50:00.133Z,1006.34
2022-12-27T22:55:03.558Z,1006.09
2022-12-27T23:00:00.149Z,1005.91
2022-12-27T23:05:00.131Z,1005.94
2022-12-27T23:10:00.113Z,1006.04
2022-12-27T23:15:00.169Z,1006.06
2022-12-27T23:20:00.102Z,1006.11
2022-12-27T23:25:00.112Z,1006.03
2022-12-27T23:30:00.161Z,1005.99
2022-12-27T23:35:00.156Z,1005.97
2022-12-27T23:40:00.093Z,1005.91
2022-12-27T23:45:00.124Z,1005.79
2022-12-27T23:50:00.125Z,1005.67
2022-12-27T23:55:00.144Z,1005.65
